sensor_id;sensor_type;location;lat;lon;timestamp;pressure;altitude;pressure_sealevel;temperature;humidity
80186;BME280;69904;52.122;5.422;2023-12-28T00:01:08;100802.16;;;9.42;84.89
80186;BME280;69904;52.122;5.422;2023-12-28T00:03:34;100809.88;;;9.45;84.67
80186;BME280;69904;52.122;5.422;2023-12-28T00:06:01;100797.88;;;9.47;84.91
80186;BME280;69904;52.122;5.422;2023-12-28T00:08:27;100806.59;;;9.49;85.22
80186;BME280;69904;52.122;5.422;2023-12-28T00:10:54;100808.28;;;9.50;85.30
80186;BME280;69904;52.122;5.422;2023-12-28T00:13:20;100821.75;;;9.50;85.24
80186;BME280;69904;52.122;5.422;2023-12-28T00:15:47;100821.34;;;9.53;85.48
80186;BME280;69904;52.122;5.422;2023-12-28T00:18:14;100829.25;;;9.55;85.58
80186;BME280;69904;52.122;5.422;2023-12-28T00:20:40;100831.31;;;9.53;85.42
80186;BME280;69904;52.122;5.422;2023-12-28T00:23:07;100835.00;;;9.52;86.19
80186;BME280;69904;52.122;5.422;2023-12-28T00:25:33;100838.38;;;9.54;85.75
80186;BME280;69904;52.122;5.422;2023-12-28T00:28:00;100843.94;;;9.52;85.84
80186;BME280;69904;52.122;5.422;2023-12-28T00:30:27;100847.47;;;9.53;86.14
80186;BME280;69904;52.122;5.422;2023-12-28T00:32:53;100841.91;;;9.54;85.90
80186;BME280;69904;52.122;5.422;2023-12-28T00:35:20;100848.97;;;9.55;85.95
80186;BME280;69904;52.122;5.422;2023-12-28T00:37:46;100851.19;;;9.52;86.07
80186;BME280;69904;52.122;5.422;2023-12-28T00:40:13;100853.03;;;9.51;86.41
80186;BME280;69904;52.122;5.422;2023-12-28T00:42:39;100861.31;;;9.50;86.24
80186;BME280;69904;52.122;5.422;2023-12-28T00:45:08;100884.75;;;9.49;86.57
80186;BME280;69904;52.122;5.422;2023-12-28T00:47:36;100863.38;;;9.48;86.74
80186;BME280;69904;52.122;5.422;2023-12-28T00:50:02;100861.91;;;9.45;86.74
80186;BME280;69904;52.122;5.422;2023-12-28T00:52:29;100878.69;;;9.47;86.86
80186;BME280;69904;52.122;5.422;2023-12-28T00:54:56;100875.81;;;9.49;86.84
80186;BME280;69904;52.122;5.422;2023-12-28T00:57:22;100868.56;;;9.49;86.56
80186;BME280;69904;52.122;5.422;2023-12-28T00:59:49;100880.38;;;9.48;87.01
80186;BME280;69904;52.122;5.422;2023-12-28T01:02:15;100869.78;;;9.47;86.85
80186;BME280;69904;52.122;5.422;2023-12-28T01:04:42;100868.94;;;9.46;86.82
80186;BME280;69904;52.122;5.422;2023-12-28T01:07:08;100868.31;;;9.44;87.17
80186;BME280;69904;52.122;5.422;2023-12-28T01:09:35;100864.13;;;9.42;86.98
80186;BME280;69904;52.122;5.422;2023-12-28T01:12:01;100867.28;;;9.45;86.98
80186;BME280;69904;52.122;5.422;2023-12-28T01:14:28;100870.53;;;9.41;86.95
80186;BME280;69904;52.122;5.422;2023-12-28T01:16:54;100867.22;;;9.39;86.89
80186;BME280;69904;52.122;5.422;2023-12-28T01:19:21;100870.25;;;9.36;87.01
80186;BME280;69904;52.122;5.422;2023-12-28T01:21:49;100875.03;;;9.34;86.90
80186;BME280;69904;52.122;5.422;2023-12-28T01:24:16;100866.28;;;9.32;86.63
80186;BME280;69904;52.122;5.422;2023-12-28T01:26:43;100876.03;;;9.33;86.91
80186;BME280;69904;52.122;5.422;2023-12-28T01:29:10;100872.50;;;9.32;86.87
80186;BME280;69904;52.122;5.422;2023-12-28T01:31:36;100887.16;;;9.29;86.66
80186;BME280;69904;52.122;5.422;2023-12-28T01:34:05;100889.84;;;9.29;86.69
80186;BME280;69904;52.122;5.422;2023-12-28T01:36:32;100890.91;;;9.28;86.95
80186;BME280;69904;52.122;5.422;2023-12-28T01:38:58;100879.31;;;9.28;86.67
80186;BME280;69904;52.122;5.422;2023-12-28T01:41:25;100884.47;;;9.29;86.39
80186;BME280;69904;52.122;5.422;2023-12-28T01:43:51;100874.94;;;9.27;86.92
80186;BME280;69904;52.122;5.422;2023-12-28T01:46:19;100873.25;;;9.26;86.95
80186;BME280;69904;52.122;5.422;2023-12-28T01:48:49;100880.13;;;9.28;86.87
80186;BME280;69904;52.122;5.422;2023-12-28T01:51:16;100885.53;;;9.28;86.58
80186;BME280;69904;52.122;5.422;2023-12-28T01:53:44;100873.06;;;9.27;86.51
80186;BME280;69904;52.122;5.422;2023-12-28T01:56:11;100888.22;;;9.28;86.69
80186;BME280;69904;52.122;5.422;2023-12-28T01:58:40;100881.78;;;9.29;86.64
80186;BME280;69904;52.122;5.422;2023-12-28T02:01:07;100888.22;;;9.28;86.68
80186;BME280;69904;52.122;5.422;2023-12-28T02:03:34;100911.63;;;9.28;86.90
80186;BME280;69904;52.122;5.422;2023-12-28T02:06:01;100896.28;;;9.28;86.73
80186;BME280;69904;52.122;5.422;2023-12-28T02:08:28;100892.56;;;9.29;86.71
80186;BME280;69904;52.122;5.422;2023-12-28T02:10:55;100886.72;;;9.26;86.46
80186;BME280;69904;52.122;5.422;2023-12-28T02:13:21;100921.72;;;9.26;86.78
80186;BME280;69904;52.122;5.422;2023-12-28T02:15:52;100887.38;;;9.28;86.79
80186;BME280;69904;52.122;5.422;2023-12-28T02:18:23;100885.69;;;9.27;86.44
80186;BME280;69904;52.122;5.422;2023-12-28T02:20:54;100877.81;;;9.25;86.69
80186;BME280;69904;52.122;5.422;2023-12-28T02:23:20;100891.47;;;9.24;86.96
80186;BME280;69904;52.122;5.422;2023-12-28T02:25:47;100885.44;;;9.22;87.04
80186;BME280;69904;52.122;5.422;2023-12-28T02:28:13;100885.44;;;9.22;87.47
80186;BME280;69904;52.122;5.422;2023-12-28T02:30:39;100876.59;;;9.28;86.99
80186;BME280;69904;52.122;5.422;2023-12-28T02:33:22;100858.19;;;9.32;86.26
80186;BME280;69904;52.122;5.422;2023-12-28T02:35:55;100869.25;;;9.37;86.15
80186;BME280;69904;52.122;5.422;2023-12-28T02:38:24;100871.75;;;9.38;85.92
80186;BME280;69904;52.122;5.422;2023-12-28T02:40:52;100856.63;;;9.37;86.05
80186;BME280;69904;52.122;5.422;2023-12-28T02:43:19;100863.00;;;9.36;86.28
80186;BME280;69904;52.122;5.422;2023-12-28T02:45:45;100865.34;;;9.39;86.16
80186;BME280;69904;52.122;5.422;2023-12-28T02:48:12;100873.31;;;9.47;85.53
80186;BME280;69904;52.122;5.422;2023-12-28T02:50:38;100843.09;;;9.52;85.12
80186;BME280;69904;52.122;5.422;2023-12-28T02:53:05;100854.34;;;9.55;85.04
80186;BME280;69904;52.122;5.422;2023-12-28T02:55:31;100845.22;;;9.56;84.92
80186;BME280;69904;52.122;5.422;2023-12-28T02:57:58;100844.59;;;9.54;85.07
80186;BME280;69904;52.122;5.422;2023-12-28T03:00:28;100838.19;;;9.55;84.90
80186;BME280;69904;52.122;5.422;2023-12-28T03:02:57;100863.63;;;9.53;84.78
80186;BME280;69904;52.122;5.422;2023-12-28T03:05:24;100843.56;;;9.55;84.94
80186;BME280;69904;52.122;5.422;2023-12-28T03:07:50;100847.72;;;9.58;84.52
80186;BME280;69904;52.122;5.422;2023-12-28T03:10:17;100847.91;;;9.56;84.40
80186;BME280;69904;52.122;5.422;2023-12-28T03:12:44;100852.28;;;9.57;84.61
80186;BME280;69904;52.122;5.422;2023-12-28T03:15:10;100843.81;;;9.60;84.62
80186;BME280;69904;52.122;5.422;2023-12-28T03:17:37;100868.06;;;9.60;84.58
80186;BME280;69904;52.122;5.422;2023-12-28T03:20:04;100860.63;;;9.62;84.29
80186;BME280;69904;52.122;5.422;2023-12-28T03:22:31;100855.72;;;9.66;84.13
80186;BME280;69904;52.122;5.422;2023-12-28T03:24:58;100853.44;;;9.69;84.08
80186;BME280;69904;52.122;5.422;2023-12-28T03:27:24;100853.63;;;9.68;83.81
80186;BME280;69904;52.122;5.422;2023-12-28T03:29:51;100854.47;;;9.68;83.99
80186;BME280;69904;52.122;5.422;2023-12-28T03:32:18;100855.56;;;9.74;83.65
80186;BME280;69904;52.122;5.422;2023-12-28T03:34:44;100858.09;;;9.76;83.64
80186;BME280;69904;52.122;5.422;2023-12-28T03:37:11;100836.50;;;9.76;83.79
80186;BME280;69904;52.122;5.422;2023-12-28T03:39:38;100840.88;;;9.77;83.43
80186;BME280;69904;52.122;5.422;2023-12-28T03:42:04;100839.84;;;9.78;83.36
80186;BME280;69904;52.122;5.422;2023-12-28T03:44:31;100851.28;;;9.80;83.52
80186;BME280;69904;52.122;5.422;2023-12-28T03:46:57;100834.44;;;9.78;83.10
80186;BME280;69904;52.122;5.422;2023-12-28T03:49:24;100850.44;;;9.79;83.18
80186;BME280;69904;52.122;5.422;2023-12-28T03:51:51;100840.94;;;9.83;83.25
80186;BME280;69904;52.122;5.422;2023-12-28T03:54:18;100854.63;;;9.82;83.11
80186;BME280;69904;52.122;5.422;2023-12-28T03:56:46;100840.94;;;9.83;82.92
80186;BME280;69904;52.122;5.422;2023-12-28T03:59:13;100843.84;;;9.82;82.80
80186;BME280;69904;52.122;5.422;2023-12-28T04:01:41;100847.91;;;9.78;82.92
80186;BME280;69904;52.122;5.422;2023-12-28T04:04:08;100896.25;;;9.79;83.04
80186;BME280;69904;52.122;5.422;2023-12-28T04:06:35;100847.75;;;9.79;82.75
80186;BME280;69904;52.122;5.422;2023-12-28T04:09:02;100837.53;;;9.75;82.91
80186;BME280;69904;52.122;5.422;2023-12-28T04:11:29;100838.78;;;9.72;83.09
80186;BME280;69904;52.122;5.422;2023-12-28T04:13:55;100854.94;;;9.72;82.87
80186;BME280;69904;52.122;5.422;2023-12-28T04:16:22;100845.22;;;9.78;82.75
80186;BME280;69904;52.122;5.422;2023-12-28T04:18:48;100874.25;;;9.76;82.86
80186;BME280;69904;52.122;5.422;2023-12-28T04:21:15;100841.50;;;9.79;82.57
80186;BME280;69904;52.122;5.422;2023-12-28T04:23:41;100851.00;;;9.75;82.63
80186;BME280;69904;52.122;5.422;2023-12-28T04:26:08;100843.31;;;9.71;82.71
80186;BME280;69904;52.122;5.422;2023-12-28T04:28:34;100839.97;;;9.69;82.79
80186;BME280;69904;52.122;5.422;2023-12-28T04:31:02;100848.25;;;9.68;82.93
80186;BME280;69904;52.122;5.422;2023-12-28T04:33:29;100870.81;;;9.67;82.96
80186;BME280;69904;52.122;5.422;2023-12-28T04:35:55;100845.75;;;9.66;82.90
80186;BME280;69904;52.122;5.422;2023-12-28T04:38:22;100857.81;;;9.70;82.39
80186;BME280;69904;52.122;5.422;2023-12-28T04:40:49;100852.03;;;9.73;82.60
80186;BME280;69904;52.122;5.422;2023-12-28T04:43:15;100863.66;;;9.74;82.30
80186;BME280;69904;52.122;5.422;2023-12-28T04:45:42;100853.88;;;9.73;82.52
80186;BME280;69904;52.122;5.422;2023-12-28T04:48:09;100859.50;;;9.71;82.25
80186;BME280;69904;52.122;5.422;2023-12-28T04:50:35;100864.31;;;9.76;82.40
80186;BME280;69904;52.122;5.422;2023-12-28T04:53:04;100847.91;;;9.78;82.12
80186;BME280;69904;52.122;5.422;2023-12-28T04:55:31;100846.91;;;9.79;81.79
80186;BME280;69904;52.122;5.422;2023-12-28T04:57:57;100839.03;;;9.77;81.89
80186;BME280;69904;52.122;5.422;2023-12-28T05:00:24;100842.53;;;9.78;81.94
80186;BME280;69904;52.122;5.422;2023-12-28T05:02:51;100845.88;;;9.80;81.52
80186;BME280;69904;52.122;5.422;2023-12-28T05:05:17;100853.97;;;9.80;81.74
80186;BME280;69904;52.122;5.422;2023-12-28T05:07:44;100854.63;;;9.82;81.38
80186;BME280;69904;52.122;5.422;2023-12-28T05:10:10;100854.41;;;9.83;81.65
80186;BME280;69904;52.122;5.422;2023-12-28T05:12:37;100871.22;;;9.85;80.74
80186;BME280;69904;52.122;5.422;2023-12-28T05:15:06;100857.16;;;9.90;80.24
80186;BME280;69904;52.122;5.422;2023-12-28T05:17:33;100885.41;;;9.94;80.27
80186;BME280;69904;52.122;5.422;2023-12-28T05:19:59;100893.50;;;9.94;80.06
80186;BME280;69904;52.122;5.422;2023-12-28T05:22:26;100857.06;;;9.98;79.95
80186;BME280;69904;52.122;5.422;2023-12-28T05:24:52;100861.63;;;9.97;79.54
80186;BME280;69904;52.122;5.422;2023-12-28T05:27:19;100886.50;;;9.99;79.75
80186;BME280;69904;52.122;5.422;2023-12-28T05:29:45;100851.09;;;10.02;79.07
80186;BME280;69904;52.122;5.422;2023-12-28T05:32:12;100869.56;;;10.05;79.03
80186;BME280;69904;52.122;5.422;2023-12-28T05:34:38;100858.59;;;10.07;78.97
80186;BME280;69904;52.122;5.422;2023-12-28T05:37:05;100870.41;;;10.06;79.01
80186;BME280;69904;52.122;5.422;2023-12-28T05:39:31;100877.03;;;10.03;79.22
80186;BME280;69904;52.122;5.422;2023-12-28T05:41:58;100895.50;;;10.06;78.87
80186;BME280;69904;52.122;5.422;2023-12-28T05:44:24;100857.81;;;10.13;78.79
80186;BME280;69904;52.122;5.422;2023-12-28T05:46:51;100874.00;;;10.13;78.72
80186;BME280;69904;52.122;5.422;2023-12-28T05:49:18;100854.94;;;10.14;78.36
80186;BME280;69904;52.122;5.422;2023-12-28T05:51:45;100876.13;;;10.18;77.87
80186;BME280;69904;52.122;5.422;2023-12-28T05:54:12;100847.31;;;10.18;78.33
80186;BME280;69904;52.122;5.422;2023-12-28T05:56:38;100901.44;;;10.17;78.09
80186;BME280;69904;52.122;5.422;2023-12-28T05:59:05;100870.34;;;10.21;77.73
80186;BME280;69904;52.122;5.422;2023-12-28T06:01:31;100883.44;;;10.24;77.72
80186;BME280;69904;52.122;5.422;2023-12-28T06:03:58;100866.63;;;10.22;78.09
80186;BME280;69904;52.122;5.422;2023-12-28T06:06:25;100879.09;;;10.23;77.88
80186;BME280;69904;52.122;5.422;2023-12-28T06:08:51;100857.50;;;10.23;77.78
80186;BME280;69904;52.122;5.422;2023-12-28T06:11:18;100870.16;;;10.22;78.12
80186;BME280;69904;52.122;5.422;2023-12-28T06:13:44;100878.44;;;10.21;77.87
80186;BME280;69904;52.122;5.422;2023-12-28T06:16:11;100881.97;;;10.21;77.89
80186;BME280;69904;52.122;5.422;2023-12-28T06:18:38;100858.75;;;10.20;78.13
80186;BME280;69904;52.122;5.422;2023-12-28T06:21:04;100890.28;;;10.20;78.04
80186;BME280;69904;52.122;5.422;2023-12-28T06:23:32;100875.56;;;10.22;78.12
80186;BME280;69904;52.122;5.422;2023-12-28T06:26:04;100881.78;;;10.23;77.81
80186;BME280;69904;52.122;5.422;2023-12-28T06:28:30;100883.88;;;10.27;77.70
80186;BME280;69904;52.122;5.422;2023-12-28T06:30:58;100909.19;;;10.26;77.84
80186;BME280;69904;52.122;5.422;2023-12-28T06:33:27;100921.66;;;10.27;77.53
80186;BME280;69904;52.122;5.422;2023-12-28T06:35:55;100905.94;;;10.31;77.42
80186;BME280;69904;52.122;5.422;2023-12-28T06:38:24;100893.66;;;10.28;77.42
80186;BME280;69904;52.122;5.422;2023-12-28T06:40:51;100896.34;;;10.28;77.32
80186;BME280;69904;52.122;5.422;2023-12-28T06:43:18;100898.41;;;10.26;77.42
80186;BME280;69904;52.122;5.422;2023-12-28T06:45:44;100905.28;;;10.29;77.05
80186;BME280;69904;52.122;5.422;2023-12-28T06:48:11;100896.16;;;10.30;77.18
80186;BME280;69904;52.122;5.422;2023-12-28T06:50:37;100912.13;;;10.31;76.82
80186;BME280;69904;52.122;5.422;2023-12-28T06:53:04;100916.06;;;10.29;77.04
80186;BME280;69904;52.122;5.422;2023-12-28T06:55:30;100938.69;;;10.28;77.17
80186;BME280;69904;52.122;5.422;2023-12-28T06:57:57;100919.44;;;10.31;77.00
80186;BME280;69904;52.122;5.422;2023-12-28T07:00:24;100916.72;;;10.31;77.33
80186;BME280;69904;52.122;5.422;2023-12-28T07:02:50;100906.97;;;10.30;77.33
80186;BME280;69904;52.122;5.422;2023-12-28T07:05:17;100928.72;;;10.28;76.98
80186;BME280;69904;52.122;5.422;2023-12-28T07:07:44;100921.66;;;10.27;77.12
80186;BME280;69904;52.122;5.422;2023-12-28T07:10:10;100915.41;;;10.27;77.06
80186;BME280;69904;52.122;5.422;2023-12-28T07:12:36;100919.13;;;10.26;77.40
80186;BME280;69904;52.122;5.422;2023-12-28T07:15:03;100918.88;;;10.21;77.62
80186;BME280;69904;52.122;5.422;2023-12-28T07:17:31;100949.78;;;10.18;77.79
80186;BME280;69904;52.122;5.422;2023-12-28T07:19:57;100936.66;;;10.15;77.48
80186;BME280;69904;52.122;5.422;2023-12-28T07:22:24;100938.91;;;10.11;78.03
80186;BME280;69904;52.122;5.422;2023-12-28T07:24:51;100948.84;;;10.11;78.01
80186;BME280;69904;52.122;5.422;2023-12-28T07:27:17;100951.94;;;10.08;77.80
80186;BME280;69904;52.122;5.422;2023-12-28T07:29:44;100945.91;;;10.06;78.32
80186;BME280;69904;52.122;5.422;2023-12-28T07:32:10;100933.81;;;10.02;78.52
80186;BME280;69904;52.122;5.422;2023-12-28T07:34:37;100937.53;;;10.01;78.38
80186;BME280;69904;52.122;5.422;2023-12-28T07:37:04;100949.56;;;9.98;78.20
80186;BME280;69904;52.122;5.422;2023-12-28T07:39:31;100970.66;;;9.95;78.82
80186;BME280;69904;52.122;5.422;2023-12-28T07:41:57;100958.69;;;9.97;78.12
80186;BME280;69904;52.122;5.422;2023-12-28T07:44:24;100951.41;;;9.98;78.19
80186;BME280;69904;52.122;5.422;2023-12-28T07:46:51;100968.63;;;9.97;78.59
80186;BME280;69904;52.122;5.422;2023-12-28T07:49:17;100961.19;;;9.99;78.65
80186;BME280;69904;52.122;5.422;2023-12-28T07:51:44;100956.59;;;9.99;78.60
80186;BME280;69904;52.122;5.422;2023-12-28T07:54:11;100970.75;;;10.01;78.17
80186;BME280;69904;52.122;5.422;2023-12-28T07:56:37;100978.06;;;10.07;78.37
80186;BME280;69904;52.122;5.422;2023-12-28T07:59:04;100982.81;;;10.05;78.43
80186;BME280;69904;52.122;5.422;2023-12-28T08:01:32;100989.88;;;10.06;78.33
80186;BME280;69904;52.122;5.422;2023-12-28T08:03:59;100997.78;;;10.08;78.26
80186;BME280;69904;52.122;5.422;2023-12-28T08:06:28;100993.69;;;10.12;77.96
80186;BME280;69904;52.122;5.422;2023-12-28T08:08:55;100977.50;;;10.12;78.16
80186;BME280;69904;52.122;5.422;2023-12-28T08:11:21;100991.16;;;10.10;78.15
80186;BME280;69904;52.122;5.422;2023-12-28T08:13:48;100984.75;;;10.11;78.15
80186;BME280;69904;52.122;5.422;2023-12-28T08:16:15;100978.16;;;10.14;77.68
80186;BME280;69904;52.122;5.422;2023-12-28T08:18:41;100973.41;;;10.16;77.49
80186;BME280;69904;52.122;5.422;2023-12-28T08:21:08;100949.13;;;10.16;78.23
80186;BME280;69904;52.122;5.422;2023-12-28T08:23:34;100976.94;;;10.17;77.95
80186;BME280;69904;52.122;5.422;2023-12-28T08:26:01;100971.38;;;10.18;78.14
80186;BME280;69904;52.122;5.422;2023-12-28T08:28:28;100980.13;;;10.20;77.91
80186;BME280;69904;52.122;5.422;2023-12-28T08:30:56;100981.75;;;10.21;77.65
80186;BME280;69904;52.122;5.422;2023-12-28T08:33:23;100978.69;;;10.24;77.72
80186;BME280;69904;52.122;5.422;2023-12-28T08:35:49;100976.84;;;10.25;77.35
80186;BME280;69904;52.122;5.422;2023-12-28T08:38:16;100977.84;;;10.24;77.66
80186;BME280;69904;52.122;5.422;2023-12-28T08:40:42;100962.50;;;10.24;77.61
80186;BME280;69904;52.122;5.422;2023-12-28T08:43:10;100968.75;;;10.25;77.18
80186;BME280;69904;52.122;5.422;2023-12-28T08:45:37;100990.31;;;10.25;77.62
80186;BME280;69904;52.122;5.422;2023-12-28T08:48:04;100982.03;;;10.26;77.19
80186;BME280;69904;52.122;5.422;2023-12-28T08:50:31;101008.16;;;10.26;77.64
80186;BME280;69904;52.122;5.422;2023-12-28T08:52:58;100984.94;;;10.25;77.49
80186;BME280;69904;52.122;5.422;2023-12-28T08:55:24;100993.03;;;10.25;77.47
80186;BME280;69904;52.122;5.422;2023-12-28T08:57:50;100992.19;;;10.24;77.64
80186;BME280;69904;52.122;5.422;2023-12-28T09:00:17;101003.41;;;10.28;77.36
80186;BME280;69904;52.122;5.422;2023-12-28T09:02:44;100994.50;;;10.27;77.43
80186;BME280;69904;52.122;5.422;2023-12-28T09:05:11;101016.91;;;10.28;77.06
80186;BME280;69904;52.122;5.422;2023-12-28T09:07:37;101023.97;;;10.29;77.54
80186;BME280;69904;52.122;5.422;2023-12-28T09:10:12;101011.31;;;10.29;77.54
80186;BME280;69904;52.122;5.422;2023-12-28T09:12:40;100998.69;;;10.30;77.25
80186;BME280;69904;52.122;5.422;2023-12-28T09:15:07;101019.03;;;10.32;77.08
80186;BME280;69904;52.122;5.422;2023-12-28T09:17:34;101009.91;;;10.33;77.40
80186;BME280;69904;52.122;5.422;2023-12-28T09:20:01;101002.84;;;10.32;76.86
80186;BME280;69904;52.122;5.422;2023-12-28T09:22:32;100997.25;;;10.34;76.68
80186;BME280;69904;52.122;5.422;2023-12-28T09:24:59;101021.53;;;10.34;77.27
80186;BME280;69904;52.122;5.422;2023-12-28T09:27:26;101019.69;;;10.34;76.98
80186;BME280;69904;52.122;5.422;2023-12-28T09:29:52;101014.94;;;10.36;76.96
80186;BME280;69904;52.122;5.422;2023-12-28T09:32:19;101022.81;;;10.38;76.74
80186;BME280;69904;52.122;5.422;2023-12-28T09:34:45;101039.84;;;10.38;77.44
80186;BME280;69904;52.122;5.422;2023-12-28T09:37:12;101028.47;;;10.43;76.49
80186;BME280;69904;52.122;5.422;2023-12-28T09:39:38;101053.00;;;10.48;76.19
80186;BME280;69904;52.122;5.422;2023-12-28T09:42:09;101033.53;;;10.52;75.64
80186;BME280;69904;52.122;5.422;2023-12-28T09:44:42;101035.69;;;10.57;75.71
80186;BME280;69904;52.122;5.422;2023-12-28T09:47:10;101034.47;;;10.60;75.18
80186;BME280;69904;52.122;5.422;2023-12-28T09:49:39;101045.91;;;10.62;75.06
80186;BME280;69904;52.122;5.422;2023-12-28T09:52:06;101048.59;;;10.62;75.63
80186;BME280;69904;52.122;5.422;2023-12-28T09:54:34;101055.03;;;10.61;75.82
80186;BME280;69904;52.122;5.422;2023-12-28T09:57:01;101066.47;;;10.63;75.21
80186;BME280;69904;52.122;5.422;2023-12-28T09:59:28;101041.97;;;10.64;75.17
80186;BME280;69904;52.122;5.422;2023-12-28T10:01:55;101055.94;;;10.68;74.97
80186;BME280;69904;52.122;5.422;2023-12-28T10:04:22;101037.22;;;10.66;75.16
80186;BME280;69904;52.122;5.422;2023-12-28T10:06:48;101061.53;;;10.66;74.52
80186;BME280;69904;52.122;5.422;2023-12-28T10:09:15;101049.88;;;10.66;74.75
80186;BME280;69904;52.122;5.422;2023-12-28T10:11:42;101048.03;;;10.66;74.78
80186;BME280;69904;52.122;5.422;2023-12-28T10:14:09;101049.88;;;10.66;74.71
80186;BME280;69904;52.122;5.422;2023-12-28T10:16:35;101065.25;;;10.65;74.95
80186;BME280;69904;52.122;5.422;2023-12-28T10:19:02;101073.72;;;10.62;75.19
80186;BME280;69904;52.122;5.422;2023-12-28T10:21:30;101058.94;;;10.58;75.62
80186;BME280;69904;52.122;5.422;2023-12-28T10:23:58;101068.69;;;10.59;75.68
80186;BME280;69904;52.122;5.422;2023-12-28T10:26:24;101064.81;;;10.62;74.68
80186;BME280;69904;52.122;5.422;2023-12-28T10:28:59;101107.78;;;10.63;74.70
80186;BME280;69904;52.122;5.422;2023-12-28T10:31:27;101059.19;;;10.63;74.50
80186;BME280;69904;52.122;5.422;2023-12-28T10:33:57;101064.59;;;10.63;75.08
80186;BME280;69904;52.122;5.422;2023-12-28T10:36:27;101055.69;;;10.63;74.75
80186;BME280;69904;52.122;5.422;2023-12-28T10:38:54;101053.78;;;10.63;75.09
80186;BME280;69904;52.122;5.422;2023-12-28T10:41:21;101050.91;;;10.65;75.05
80186;BME280;69904;52.122;5.422;2023-12-28T10:46:33;101057.66;;;10.75;74.90
80186;BME280;69904;52.122;5.422;2023-12-28T10:51:36;101059.00;;;10.86;74.34
80186;BME280;69904;52.122;5.422;2023-12-28T10:54:10;101061.94;;;10.91;74.09
80186;BME280;69904;52.122;5.422;2023-12-28T10:56:45;101074.59;;;10.90;73.56
80186;BME280;69904;52.122;5.422;2023-12-28T10:59:39;101053.66;;;10.92;74.08
80186;BME280;69904;52.122;5.422;2023-12-28T11:02:11;101080.84;;;10.91;73.57
80186;BME280;69904;52.122;5.422;2023-12-28T11:04:53;101049.94;;;10.93;73.56
80186;BME280;69904;52.122;5.422;2023-12-28T11:07:20;101065.66;;;10.90;73.91
80186;BME280;69904;52.122;5.422;2023-12-28T11:09:47;101060.84;;;10.85;73.68
80186;BME280;69904;52.122;5.422;2023-12-28T11:12:16;101059.84;;;10.86;73.47
80186;BME280;69904;52.122;5.422;2023-12-28T11:14:45;101048.00;;;10.87;73.75
80186;BME280;69904;52.122;5.422;2023-12-28T11:17:12;101031.41;;;10.90;73.47
80186;BME280;69904;52.122;5.422;2023-12-28T11:19:42;101055.28;;;10.87;73.49
80186;BME280;69904;52.122;5.422;2023-12-28T11:22:09;101048.19;;;10.86;73.50
80186;BME280;69904;52.122;5.422;2023-12-28T11:24:36;101068.13;;;10.85;73.33
80186;BME280;69904;52.122;5.422;2023-12-28T11:27:03;101041.13;;;10.85;73.38
80186;BME280;69904;52.122;5.422;2023-12-28T11:29:34;101049.44;;;10.83;73.66
80186;BME280;69904;52.122;5.422;2023-12-28T11:32:01;101040.50;;;10.83;73.36
80186;BME280;69904;52.122;5.422;2023-12-28T11:34:28;101030.13;;;10.86;73.83
80186;BME280;69904;52.122;5.422;2023-12-28T11:36:56;101048.69;;;10.96;73.15
80186;BME280;69904;52.122;5.422;2023-12-28T11:39:30;101024.69;;;11.08;73.14
80186;BME280;69904;52.122;5.422;2023-12-28T11:42:04;101030.28;;;11.06;72.99
80186;BME280;69904;52.122;5.422;2023-12-28T11:44:37;101032.56;;;11.03;72.72
80186;BME280;69904;52.122;5.422;2023-12-28T11:47:15;101030.25;;;11.00;72.86
80186;BME280;69904;52.122;5.422;2023-12-28T11:49:42;101057.84;;;10.95;73.09
80186;BME280;69904;52.122;5.422;2023-12-28T11:52:29;101045.56;;;10.92;73.43
80186;BME280;69904;52.122;5.422;2023-12-28T11:54:57;101044.28;;;10.88;73.72
80186;BME280;69904;52.122;5.422;2023-12-28T11:57:26;101041.78;;;10.87;73.44
80186;BME280;69904;52.122;5.422;2023-12-28T11:59:55;101074.00;;;10.88;73.58
80186;BME280;69904;52.122;5.422;2023-12-28T12:02:22;101055.72;;;10.90;73.54
80186;BME280;69904;52.122;5.422;2023-12-28T12:04:48;101053.00;;;10.90;73.25
80186;BME280;69904;52.122;5.422;2023-12-28T12:07:17;101039.50;;;10.90;73.27
80186;BME280;69904;52.122;5.422;2023-12-28T12:09:44;101047.59;;;10.90;73.35
80186;BME280;69904;52.122;5.422;2023-12-28T12:12:11;101036.81;;;10.90;73.27
80186;BME280;69904;52.122;5.422;2023-12-28T12:14:37;101016.03;;;10.91;73.54
80186;BME280;69904;52.122;5.422;2023-12-28T12:17:04;101027.88;;;10.90;73.04
80186;BME280;69904;52.122;5.422;2023-12-28T12:19:30;101024.78;;;10.93;73.69
80186;BME280;69904;52.122;5.422;2023-12-28T12:21:58;100993.84;;;10.95;73.14
80186;BME280;69904;52.122;5.422;2023-12-28T12:24:24;101015.66;;;10.94;73.14
80186;BME280;69904;52.122;5.422;2023-12-28T12:26:52;101003.00;;;10.94;73.39
80186;BME280;69904;52.122;5.422;2023-12-28T12:29:19;100995.09;;;10.93;73.28
80186;BME280;69904;52.122;5.422;2023-12-28T12:31:52;101023.78;;;10.94;73.45
80186;BME280;69904;52.122;5.422;2023-12-28T12:34:19;101006.72;;;10.93;73.46
80186;BME280;69904;52.122;5.422;2023-12-28T12:36:45;100991.38;;;10.94;73.21
80186;BME280;69904;52.122;5.422;2023-12-28T12:39:13;101014.81;;;10.93;72.73
80186;BME280;69904;52.122;5.422;2023-12-28T12:41:39;101029.16;;;10.94;72.86
80186;BME280;69904;52.122;5.422;2023-12-28T12:44:08;100999.06;;;10.97;73.01
80186;BME280;69904;52.122;5.422;2023-12-28T12:46:36;101001.75;;;10.97;73.16
80186;BME280;69904;52.122;5.422;2023-12-28T12:49:03;101000.31;;;11.01;72.87
80186;BME280;69904;52.122;5.422;2023-12-28T12:51:31;101015.25;;;10.97;72.63
80186;BME280;69904;52.122;5.422;2023-12-28T12:53:59;101023.78;;;10.94;72.85
80186;BME280;69904;52.122;5.422;2023-12-28T12:56:26;101002.34;;;10.92;73.19
80186;BME280;69904;52.122;5.422;2023-12-28T12:58:54;100981.78;;;10.91;73.02
80186;BME280;69904;52.122;5.422;2023-12-28T13:01:21;101011.47;;;10.91;73.10